
Distance (Route):
Temperature : 0°C
Humidity : 0%
Pressure : 0hPa| Receiver | Frames | First received | Last received |
|---|---|---|---|
| OM5KV | 146 | 2026-09-03 07:04:45 | 2026-09-03 07:40:50 |
| SQ9PSP-11 | 131 | 2026-09-03 06:49:20 | 2026-09-03 07:49:06 |
| SP9KGR-15 | 55 | 2026-09-03 07:22:50 | 2026-09-03 07:51:14 |
| AKAW683 | 7 | 2026-09-03 06:18:23 | 2026-09-03 06:22:00 |
| SQ9EZE-14 | 1 | 2026-09-03 07:38:02 | 2026-09-03 07:38:02 |
| SP8MDH-15 | 1 | 2026-09-03 07:38:51 | 2026-09-03 07:38:51 |
| Receiver | Date | Latitude | Longitude | Direction | Speed | Altitude | Climb | Temperature | Humidity | Pressure | Voltage | Killtimer | Uptime | BKT | XDATA |
|---|---|---|---|---|---|---|---|---|---|---|---|---|---|---|---|
| SP9KGR-15 | 2026-09-03 07:51:14 | 50.58287 | 21.82179 | 89° | 18km/h | 3442m | -12.1m/s | 0°C | 0% | 0hPa | 0V | 00:00:00 | 00:00:00 | 00:00:00 | |
| SP9KGR-15 | 2026-09-03 07:50:58 | 50.58304 | 21.82048 | 113° | 18km/h | 3637m | -12.5m/s | 0°C | 0% | 0hPa | 0V | 00:00:00 | 00:00:00 | 00:00:00 | |
| SP9KGR-15 | 2026-09-03 07:50:42 | 50.58286 | 21.81944 | 80° | 18km/h | 3835m | -12.7m/s | 0°C | 0% | 0hPa | 0V | 00:00:00 | 00:00:00 | 00:00:00 | |
| SP9KGR-15 | 2026-09-03 07:50:25 | 50.58297 | 21.81784 | 91° | 37km/h | 4052m | -12.8m/s | 0°C | 0% | 0hPa | 0V | 00:00:00 | 00:00:00 | 00:00:00 | |
| SP9KGR-15 | 2026-09-03 07:50:05 | 50.58327 | 21.81545 | 92° | 31km/h | 4315m | -12.8m/s | 0°C | 0% | 0hPa | 0V | 00:00:00 | 00:00:00 | 00:00:00 | |
| SP9KGR-15 | 2026-09-03 07:49:39 | 50.58372 | 21.81275 | 102° | 33km/h | 4652m | -12.9m/s | 0°C | 0% | 0hPa | 0V | 00:00:00 | 00:00:00 | 00:00:00 | |
| SP9KGR-15 | 2026-09-03 07:49:24 | 50.58394 | 21.81108 | 98° | 33km/h | 4838m | -12.6m/s | 0°C | 0% | 0hPa | 0V | 00:00:00 | 00:00:00 | 00:00:00 | |
| SQ9PSP-11 | 2026-09-03 07:49:06 | 50.58410 | 21.80888 | 99° | 31km/h | 5058m | -13.3m/s | 0°C | 0% | 0hPa | 0V | 00:00:00 | 00:00:00 | 00:00:00 | |
| SP9KGR-15 | 2026-09-03 07:48:50 | 50.58426 | 21.80684 | 91° | 31km/h | 5263m | -12.8m/s | 0°C | 0% | 0hPa | 0V | 00:00:00 | 00:00:00 | 00:00:00 | |
| SP9KGR-15 | 2026-09-03 07:48:34 | 50.58432 | 21.80487 | 93° | 35km/h | 5457m | -13.3m/s | 0°C | 0% | 0hPa | 0V | 00:00:00 | 00:00:00 | 00:00:00 | |
| SQ9PSP-11 | 2026-09-03 07:48:29 | 50.58435 | 21.80420 | 90° | 35km/h | 5521m | -13.4m/s | 0°C | 0% | 0hPa | 0V | 00:00:00 | 00:00:00 | 00:00:00 | |
| SP9KGR-15 | 2026-09-03 07:48:18 | 50.58439 | 21.80266 | 97° | 37km/h | 5663m | -13.2m/s | 0°C | 0% | 0hPa | 0V | 00:00:00 | 00:00:00 | 00:00:00 | |
| SQ9PSP-11 | 2026-09-03 07:48:11 | 50.58447 | 21.80175 | 95° | 33km/h | 5752m | -13.6m/s | 0°C | 0% | 0hPa | 0V | 00:00:00 | 00:00:00 | 00:00:00 | |
| SP9KGR-15 | 2026-09-03 07:48:03 | 50.58453 | 21.80067 | 98° | 33km/h | 5859m | -13.3m/s | 0°C | 0% | 0hPa | 0V | 00:00:00 | 00:00:00 | 00:00:00 | |
| SQ9PSP-11 | 2026-09-03 07:47:52 | 50.58456 | 21.79931 | 90° | 31km/h | 6005m | -13.0m/s | 0°C | 0% | 0hPa | 0V | 00:00:00 | 00:00:00 | 00:00:00 | |
| SP9KGR-15 | 2026-09-03 07:47:47 | 50.58453 | 21.79867 | 82° | 35km/h | 6071m | -13.5m/s | 0°C | 0% | 0hPa | 0V | 00:00:00 | 00:00:00 | 00:00:00 | |
| SQ9PSP-11 | 2026-09-03 07:47:29 | 50.58423 | 21.79598 | 80° | 37km/h | 6312m | -13.4m/s | 0°C | 0% | 0hPa | 0V | 00:00:00 | 00:00:00 | 00:00:00 | |
| SQ9PSP-11 | 2026-09-03 07:47:12 | 50.58432 | 21.79278 | 98° | 47km/h | 6536m | -13.8m/s | 0°C | 0% | 0hPa | 0V | 00:00:00 | 00:00:00 | 00:00:00 | |
| SP9KGR-15 | 2026-09-03 07:47:09 | 50.58436 | 21.79223 | 95° | 42km/h | 6577m | -13.4m/s | 0°C | 0% | 0hPa | 0V | 00:00:00 | 00:00:00 | 00:00:00 | |
| SQ9PSP-11 | 2026-09-03 07:46:56 | 50.58460 | 21.79038 | 109° | 38km/h | 6749m | -13.0m/s | 0°C | 0% | 0hPa | 0V | 00:00:00 | 00:00:00 | 00:00:00 | |
| SP9KGR-15 | 2026-09-03 07:46:53 | 50.58469 | 21.78997 | 108° | 35km/h | 6788m | -13.7m/s | 0°C | 0% | 0hPa | 0V | 00:00:00 | 00:00:00 | 00:00:00 | |
| SQ9PSP-11 | 2026-09-03 07:46:41 | 50.58514 | 21.78846 | 124° | 33km/h | 6955m | -14.1m/s | 0°C | 0% | 0hPa | 0V | 00:00:00 | 00:00:00 | 00:00:00 | |
| SP9KGR-15 | 2026-09-03 07:46:34 | 50.58552 | 21.78758 | 129° | 42km/h | 7054m | -14.0m/s | 0°C | 0% | 0hPa | 0V | 00:00:00 | 00:00:00 | 00:00:00 | |
| SQ9PSP-11 | 2026-09-03 07:46:25 | 50.58617 | 21.78612 | 128° | 57km/h | 7177m | -13.4m/s | 0°C | 0% | 0hPa | 0V | 00:00:00 | 00:00:00 | 00:00:00 | |
| SQ9PSP-11 | 2026-09-03 07:46:09 | 50.58779 | 21.78322 | 132° | 62km/h | 7400m | -13.7m/s | 0°C | 0% | 0hPa | 0V | 00:00:00 | 00:00:00 | 00:00:00 | |
| SP9KGR-15 | 2026-09-03 07:45:54 | 50.58914 | 21.78051 | 122° | 62km/h | 7608m | -13.8m/s | 0°C | 0% | 0hPa | 0V | 00:00:00 | 00:00:00 | 00:00:00 | |
| SQ9PSP-11 | 2026-09-03 07:45:47 | 50.58980 | 21.77924 | 128° | 55km/h | 7707m | -13.8m/s | 0°C | 0% | 0hPa | 0V | 00:00:00 | 00:00:00 | 00:00:00 | |
| SP9KGR-15 | 2026-09-03 07:45:39 | 50.59055 | 21.77785 | 132° | 58km/h | 7819m | -13.5m/s | 0°C | 0% | 0hPa | 0V | 00:00:00 | 00:00:00 | 00:00:00 | |
| SQ9PSP-11 | 2026-09-03 07:45:32 | 50.59123 | 21.77662 | 131° | 62km/h | 7915m | -13.6m/s | 0°C | 0% | 0hPa | 0V | 00:00:00 | 00:00:00 | 00:00:00 | |
| SQ9PSP-11 | 2026-09-03 07:45:17 | 50.59272 | 21.77382 | 131° | 62km/h | 8126m | -13.7m/s | 0°C | 0% | 0hPa | 0V | 00:00:00 | 00:00:00 | 00:00:00 | |
| SP9KGR-15 | 2026-09-03 07:45:05 | 50.59386 | 21.77143 | 124° | 64km/h | 8295m | -13.1m/s | 0°C | 0% | 0hPa | 0V | 00:00:00 | 00:00:00 | 00:00:00 | |
| SQ9PSP-11 | 2026-09-03 07:45:01 | 50.59420 | 21.77062 | 127° | 66km/h | 8350m | -14.8m/s | 0°C | 0% | 0hPa | 0V | 00:00:00 | 00:00:00 | 00:00:00 | |
| SP9KGR-15 | 2026-09-03 07:44:48 | 50.59532 | 21.76789 | 123° | 66km/h | 8531m | -13.5m/s | 0°C | 0% | 0hPa | 0V | 00:00:00 | 00:00:00 | 00:00:00 | |
| SQ9PSP-11 | 2026-09-03 07:44:46 | 50.59549 | 21.76745 | 121° | 66km/h | 8559m | -13.6m/s | 0°C | 0% | 0hPa | 0V | 00:00:00 | 00:00:00 | 00:00:00 | |
| SQ9PSP-11 | 2026-09-03 07:44:30 | 50.59674 | 21.76375 | 118° | 71km/h | 8783m | -13.6m/s | 0°C | 0% | 0hPa | 0V | 00:00:00 | 00:00:00 | 00:00:00 | |
| SQ9PSP-11 | 2026-09-03 07:44:14 | 50.59814 | 21.75980 | 121° | 73km/h | 9012m | -13.9m/s | 0°C | 0% | 0hPa | 0V | 00:00:00 | 00:00:00 | 00:00:00 | |
| OM5KV | 2026-09-03 07:40:50 | 50.62128 | 21.70764 | 130° | 64km/h | 12216m | -18.4m/s | 0°C | 0% | 0hPa | 0V | 00:00:00 | 00:00:00 | 00:00:00 | |
| OM5KV | 2026-09-03 07:40:47 | 50.62156 | 21.70705 | 130° | 60km/h | 12272m | -18.3m/s | 0°C | 0% | 0hPa | 0V | 00:00:00 | 00:00:00 | 00:00:00 | |
| OM5KV | 2026-09-03 07:40:41 | 50.62206 | 21.70592 | 126° | 55km/h | 12383m | -18.9m/s | 0°C | 0% | 0hPa | 0V | 00:00:00 | 00:00:00 | 00:00:00 | |
| SQ9PSP-11 | 2026-09-03 07:40:36 | 50.62251 | 21.70500 | 123° | 58km/h | 12476m | -18.6m/s | 0°C | 0% | 0hPa | 0V | 00:00:00 | 00:00:00 | 00:00:00 | |
| OM5KV | 2026-09-03 07:40:34 | 50.62268 | 21.70462 | 124° | 57km/h | 12514m | -18.2m/s | 0°C | 0% | 0hPa | 0V | 00:00:00 | 00:00:00 | 00:00:00 | |
| OM5KV | 2026-09-03 07:40:30 | 50.62301 | 21.70383 | 126° | 62km/h | 12589m | -19.2m/s | 0°C | 0% | 0hPa | 0V | 00:00:00 | 00:00:00 | 00:00:00 | |
| OM5KV | 2026-09-03 07:40:24 | 50.62346 | 21.70258 | 119° | 57km/h | 12703m | -18.9m/s | 0°C | 0% | 0hPa | 0V | 00:00:00 | 00:00:00 | 00:00:00 | |
| OM5KV | 2026-09-03 07:40:18 | 50.62388 | 21.70145 | 122° | 55km/h | 12819m | -19.1m/s | 0°C | 0% | 0hPa | 0V | 00:00:00 | 00:00:00 | 00:00:00 | |
| OM5KV | 2026-09-03 07:40:12 | 50.62427 | 21.70024 | 116° | 58km/h | 12936m | -19.6m/s | 0°C | 0% | 0hPa | 0V | 00:00:00 | 00:00:00 | 00:00:00 | |
| OM5KV | 2026-09-03 07:39:54 | 50.62577 | 21.69616 | 121° | 68km/h | 13290m | -20.2m/s | 0°C | 0% | 0hPa | 0V | 00:00:00 | 00:00:00 | 00:00:00 | |
| OM5KV | 2026-09-03 07:39:46 | 50.62646 | 21.69452 | 122° | 55km/h | 13453m | -20.4m/s | 0°C | 0% | 0hPa | 0V | 00:00:00 | 00:00:00 | 00:00:00 | |
| SQ9PSP-11 | 2026-09-03 07:39:44 | 50.62661 | 21.69415 | 122° | 51km/h | 13493m | -20.3m/s | 0°C | 0% | 0hPa | 0V | 00:00:00 | 00:00:00 | 00:00:00 | |
| SQ9PSP-11 | 2026-09-03 07:39:24 | 50.62771 | 21.69065 | 120° | 46km/h | 13904m | -20.5m/s | 0°C | 0% | 0hPa | 0V | 00:00:00 | 00:00:00 | 00:00:00 | |
| OM5KV | 2026-09-03 07:39:06 | 50.62888 | 21.68739 | 121° | 55km/h | 14281m | -21.6m/s | 0°C | 0% | 0hPa | 0V | 00:00:00 | 00:00:00 | 00:00:00 | |
| SP9KGR-15 | 2026-09-03 07:39:01 | 50.62919 | 21.68646 | 118° | 55km/h | 14389m | -21.4m/s | 0°C | 0% | 0hPa | 0V | 00:00:00 | 00:00:00 | 00:00:00 | |
| OM5KV | 2026-09-03 07:39:00 | 50.62926 | 21.68627 | 122° | 53km/h | 14411m | -21.3m/s | 0°C | 0% | 0hPa | 0V | 00:00:00 | 00:00:00 | 00:00:00 | |
| OM5KV | 2026-09-03 07:38:55 | 50.62956 | 21.68542 | 118° | 47km/h | 14519m | -21.8m/s | 0°C | 0% | 0hPa | 0V | 00:00:00 | 00:00:00 | 00:00:00 | |
| OM5KV | 2026-09-03 07:38:53 | 50.62965 | 21.68509 | 108° | 46km/h | 14562m | -21.0m/s | 0°C | 0% | 0hPa | 0V | 00:00:00 | 00:00:00 | 00:00:00 | |
| SP8MDH-15 | 2026-09-03 07:38:51 | 50.62972 | 21.68475 | 106° | 44km/h | 14604m | -21.4m/s | 0°C | 0% | 0hPa | 0V | 00:00:00 | 00:00:00 | 00:00:00 | |
| SQ9PSP-11 | 2026-09-03 07:38:50 | 50.62975 | 21.68457 | 104° | 49km/h | 14626m | -21.7m/s | 0°C | 0% | 0hPa | 0V | 00:00:00 | 00:00:00 | 00:00:00 | |
| OM5KV | 2026-09-03 07:38:48 | 50.62980 | 21.68421 | 100° | 47km/h | 14669m | -21.4m/s | 0°C | 0% | 0hPa | 0V | 00:00:00 | 00:00:00 | 00:00:00 | |
| SP9KGR-15 | 2026-09-03 07:38:44 | 50.62988 | 21.68337 | 99° | 58km/h | 14754m | -22.1m/s | 0°C | 0% | 0hPa | 0V | 00:00:00 | 00:00:00 | 00:00:00 | |
| SQ9PSP-11 | 2026-09-03 07:38:34 | 50.63011 | 21.68123 | 107° | 53km/h | 14972m | -21.2m/s | 0°C | 0% | 0hPa | 0V | 00:00:00 | 00:00:00 | 00:00:00 | |
| SP9KGR-15 | 2026-09-03 07:38:27 | 50.63049 | 21.67973 | 115° | 57km/h | 15121m | -21.0m/s | 0°C | 0% | 0hPa | 0V | 00:00:00 | 00:00:00 | 00:00:00 | |
| SQ9PSP-11 | 2026-09-03 07:38:14 | 50.63126 | 21.67750 | 118° | 47km/h | 15384m | -19.3m/s | 0°C | 0% | 0hPa | 0V | 00:00:00 | 00:00:00 | 00:00:00 | |
| SP9KGR-15 | 2026-09-03 07:38:09 | 50.63158 | 21.67674 | 130° | 44km/h | 15488m | -21.3m/s | 0°C | 0% | 0hPa | 0V | 00:00:00 | 00:00:00 | 00:00:00 | |
| OM5KV | 2026-09-03 07:38:03 | 50.63200 | 21.67609 | 141° | 37km/h | 15614m | -19.7m/s | 0°C | 0% | 0hPa | 0V | 00:00:00 | 00:00:00 | 00:00:00 | |
| SQ9EZE-14 | 2026-09-03 07:38:02 | 50.63207 | 21.67600 | 142° | 37km/h | 15633m | -19.2m/s | 0°C | 0% | 0hPa | 0V | 00:00:00 | 00:00:00 | 00:00:00 | |
| OM5KV | 2026-09-03 07:38:00 | 50.63221 | 21.67582 | 140° | 37km/h | 15673m | -20.4m/s | 0°C | 0% | 0hPa | 0V | 00:00:00 | 00:00:00 | 00:00:00 | |
| SQ9PSP-11 | 2026-09-03 07:37:57 | 50.63241 | 21.67555 | 140° | 33km/h | 15735m | -20.3m/s | 0°C | 0% | 0hPa | 0V | 00:00:00 | 00:00:00 | 00:00:00 | |
| SP9KGR-15 | 2026-09-03 07:37:49 | 50.63281 | 21.67493 | 128° | 26km/h | 15905m | -20.6m/s | 0°C | 0% | 0hPa | 0V | 00:00:00 | 00:00:00 | 00:00:00 | |
| OM5KV | 2026-09-03 07:37:48 | 50.63285 | 21.67484 | 127° | 27km/h | 15926m | -20.7m/s | 0°C | 0% | 0hPa | 0V | 00:00:00 | 00:00:00 | 00:00:00 | |
| OM5KV | 2026-09-03 07:37:42 | 50.63301 | 21.67410 | 98° | 35km/h | 16061m | -23.4m/s | 0°C | 0% | 0hPa | 0V | 00:00:00 | 00:00:00 | 00:00:00 | |
| OM5KV | 2026-09-03 07:37:41 | 50.63302 | 21.67396 | 96° | 37km/h | 16084m | -22.1m/s | 0°C | 0% | 0hPa | 0V | 00:00:00 | 00:00:00 | 00:00:00 | |
| SQ9PSP-11 | 2026-09-03 07:37:40 | 50.63303 | 21.67381 | 95° | 38km/h | 16106m | -21.1m/s | 0°C | 0% | 0hPa | 0V | 00:00:00 | 00:00:00 | 00:00:00 | |
| SP9KGR-15 | 2026-09-03 07:37:34 | 50.63302 | 21.67286 | 85° | 40km/h | 16242m | -24.0m/s | 0°C | 0% | 0hPa | 0V | 00:00:00 | 00:00:00 | 00:00:00 | |
| OM5KV | 2026-09-03 07:37:29 | 50.63300 | 21.67200 | 94° | 44km/h | 16362m | -23.2m/s | 0°C | 0% | 0hPa | 0V | 00:00:00 | 00:00:00 | 00:00:00 | |
| OM5KV | 2026-09-03 07:37:22 | 50.63306 | 21.67069 | 99° | 46km/h | 16524m | -23.1m/s | 0°C | 0% | 0hPa | 0V | 00:00:00 | 00:00:00 | 00:00:00 | |
| SQ9PSP-11 | 2026-09-03 07:37:20 | 50.63309 | 21.67034 | 101° | 44km/h | 16570m | -22.9m/s | 0°C | 0% | 0hPa | 0V | 00:00:00 | 00:00:00 | 00:00:00 | |
| SP9KGR-15 | 2026-09-03 07:37:14 | 50.63328 | 21.66936 | 115° | 42km/h | 16712m | -24.2m/s | 0°C | 0% | 0hPa | 0V | 00:00:00 | 00:00:00 | 00:00:00 | |
| OM5KV | 2026-09-03 07:37:11 | 50.63342 | 21.66890 | 120° | 44km/h | 16781m | -20.8m/s | 0°C | 0% | 0hPa | 0V | 00:00:00 | 00:00:00 | 00:00:00 | |
| OM5KV | 2026-09-03 07:37:00 | 50.63375 | 21.66723 | 99° | 46km/h | 17011m | -19.6m/s | 0°C | 0% | 0hPa | 0V | 00:00:00 | 00:00:00 | 00:00:00 | |
| SQ9PSP-11 | 2026-09-03 07:36:59 | 50.63376 | 21.66705 | 97° | 46km/h | 17031m | -20.0m/s | 0°C | 0% | 0hPa | 0V | 00:00:00 | 00:00:00 | 00:00:00 | |
| SQ9PSP-11 | 2026-09-03 07:36:40 | 50.63423 | 21.66379 | 97° | 46km/h | 17470m | -23.8m/s | 0°C | 0% | 0hPa | 0V | 00:00:00 | 00:00:00 | 00:00:00 | |
| SP9KGR-15 | 2026-09-03 07:36:37 | 50.63427 | 21.66325 | 99° | 44km/h | 17540m | -22.0m/s | 0°C | 0% | 0hPa | 0V | 00:00:00 | 00:00:00 | 00:00:00 | |
| OM5KV | 2026-09-03 07:36:35 | 50.63431 | 21.66291 | 103° | 44km/h | 17582m | -19.8m/s | 0°C | 0% | 0hPa | 0V | 00:00:00 | 00:00:00 | 00:00:00 | |
| OM5KV | 2026-09-03 07:36:29 | 50.63445 | 21.66206 | 106° | 33km/h | 17711m | -22.8m/s | 0°C | 0% | 0hPa | 0V | 00:00:00 | 00:00:00 | 00:00:00 | |
| SQ9PSP-11 | 2026-09-03 07:36:25 | 50.63453 | 21.66164 | 109° | 22km/h | 17802m | -22.4m/s | 0°C | 0% | 0hPa | 0V | 00:00:00 | 00:00:00 | 00:00:00 | |
| SP9KGR-15 | 2026-09-03 07:36:21 | 50.63456 | 21.66131 | 90° | 20km/h | 17894m | -22.0m/s | 0°C | 0% | 0hPa | 0V | 00:00:00 | 00:00:00 | 00:00:00 | |
| OM5KV | 2026-09-03 07:35:57 | 50.63455 | 21.65912 | 79° | 18km/h | 18432m | -22.8m/s | 0°C | 0% | 0hPa | 0V | 00:00:00 | 00:00:00 | 00:00:00 | |
| SP9KGR-15 | 2026-09-03 07:35:56 | 50.63454 | 21.65904 | 74° | 20km/h | 18455m | -23.2m/s | 0°C | 0% | 0hPa | 0V | 00:00:00 | 00:00:00 | 00:00:00 | |
| SQ9PSP-11 | 2026-09-03 07:35:51 | 50.63447 | 21.65871 | 79° | 18km/h | 18571m | -21.7m/s | 0°C | 0% | 0hPa | 0V | 00:00:00 | 00:00:00 | 00:00:00 | |
| OM5KV | 2026-09-03 07:35:42 | 50.63445 | 21.65783 | 104° | 27km/h | 18764m | -18.1m/s | 0°C | 0% | 0hPa | 0V | 00:00:00 | 00:00:00 | 00:00:00 | |
| OM5KV | 2026-09-03 07:35:41 | 50.63447 | 21.65772 | 107° | 29km/h | 18780m | -15.1m/s | 0°C | 0% | 0hPa | 0V | 00:00:00 | 00:00:00 | 00:00:00 | |
| OM5KV | 2026-09-03 07:35:36 | 50.63464 | 21.65714 | 123° | 31km/h | 18827m | 4.8m/s | 0°C | 0% | 0hPa | 0V | 00:00:00 | 00:00:00 | 00:00:00 | |
| OM5KV | 2026-09-03 07:35:30 | 50.63473 | 21.65652 | 98° | 26km/h | 18803m | 3.9m/s | 0°C | 0% | 0hPa | 0V | 00:00:00 | 00:00:00 | 00:00:00 | |
| SP9KGR-15 | 2026-09-03 07:34:59 | 50.63473 | 21.65324 | 98° | 35km/h | 18675m | 0.7m/s | 0°C | 0% | 0hPa | 0V | 00:00:00 | 00:00:00 | 00:00:00 | |
| OM5KV | 2026-09-03 07:34:43 | 50.63451 | 21.65200 | 91° | 22km/h | 18607m | 4.0m/s | 0°C | 0% | 0hPa | 0V | 00:00:00 | 00:00:00 | 00:00:00 | |
| SQ9PSP-11 | 2026-09-03 07:34:40 | 50.63449 | 21.65186 | 88° | 35km/h | 18594m | 2.5m/s | 0°C | 0% | 0hPa | 0V | 00:00:00 | 00:00:00 | 00:00:00 | |
| OM5KV | 2026-09-03 07:34:38 | 50.63447 | 21.65175 | 2° | 7km/h | 18587m | 1.0m/s | 0°C | 0% | 0hPa | 0V | 00:00:00 | 00:00:00 | 00:00:00 | |
| OM5KV | 2026-09-03 07:34:25 | 50.63430 | 21.65089 | 99° | 29km/h | 18532m | 2.5m/s | 0°C | 0% | 0hPa | 0V | 00:00:00 | 00:00:00 | 00:00:00 | |
| SP9KGR-15 | 2026-09-03 07:34:24 | 50.63430 | 21.65080 | 81° | 20km/h | 18530m | 3.5m/s | 0°C | 0% | 0hPa | 0V | 00:00:00 | 00:00:00 | 00:00:00 | |
| SQ9PSP-11 | 2026-09-03 07:34:22 | 50.63425 | 21.65075 | 60° | 11km/h | 18523m | 4.2m/s | 0°C | 0% | 0hPa | 0V | 00:00:00 | 00:00:00 | 00:00:00 | |
| OM5KV | 2026-09-03 07:34:16 | 50.63418 | 21.65032 | 62° | 15km/h | 18499m | 5.7m/s | 0°C | 0% | 0hPa | 0V | 00:00:00 | 00:00:00 | 00:00:00 | |
| OM5KV | 2026-09-03 07:34:15 | 50.63417 | 21.65029 | 48° | 4km/h | 18495m | 1.2m/s | 0°C | 0% | 0hPa | 0V | 00:00:00 | 00:00:00 | 00:00:00 | |
| OM5KV | 2026-09-03 07:34:13 | 50.63415 | 21.65013 | 69° | 27km/h | 18485m | 1.5m/s | 0°C | 0% | 0hPa | 0V | 00:00:00 | 00:00:00 | 00:00:00 | |
| SQ9PSP-11 | 2026-09-03 07:34:07 | 50.63408 | 21.64975 | 47° | 24km/h | 18460m | 4.5m/s | 0°C | 0% | 0hPa | 0V | 00:00:00 | 00:00:00 | 00:00:00 | |
| OM5KV | 2026-09-03 07:34:03 | 50.63401 | 21.64951 | 62° | 20km/h | 18444m | 2.7m/s | 0°C | 0% | 0hPa | 0V | 00:00:00 | 00:00:00 | 00:00:00 | |
| OM5KV | 2026-09-03 07:33:58 | 50.63397 | 21.64917 | 133° | 26km/h | 18424m | 2.0m/s | 0°C | 0% | 0hPa | 0V | 00:00:00 | 00:00:00 | 00:00:00 | |
| OM5KV | 2026-09-03 07:33:53 | 50.63397 | 21.64877 | 62° | 22km/h | 18404m | 3.7m/s | 0°C | 0% | 0hPa | 0V | 00:00:00 | 00:00:00 | 00:00:00 | |
| SP9KGR-15 | 2026-09-03 07:33:50 | 50.63397 | 21.64857 | 76° | 31km/h | 18392m | 2.8m/s | 0°C | 0% | 0hPa | 0V | 00:00:00 | 00:00:00 | 00:00:00 | |
| OM5KV | 2026-09-03 07:33:46 | 50.63395 | 21.64829 | 22° | 5km/h | 18376m | 2.5m/s | 0°C | 0% | 0hPa | 0V | 00:00:00 | 00:00:00 | 00:00:00 | |
| OM5KV | 2026-09-03 07:33:41 | 50.63396 | 21.64790 | 100° | 29km/h | 18357m | 5.2m/s | 0°C | 0% | 0hPa | 0V | 00:00:00 | 00:00:00 | 00:00:00 | |
| SP9KGR-15 | 2026-09-03 07:33:34 | 50.63396 | 21.64727 | 96° | 37km/h | 18325m | 0.3m/s | 0°C | 0% | 0hPa | 0V | 00:00:00 | 00:00:00 | 00:00:00 | |
| SQ9PSP-11 | 2026-09-03 07:33:32 | 50.63395 | 21.64708 | 87° | 11km/h | 18319m | -1.0m/s | 0°C | 0% | 0hPa | 0V | 00:00:00 | 00:00:00 | 00:00:00 | |
| OM5KV | 2026-09-03 07:33:29 | 50.63396 | 21.64682 | 105° | 9km/h | 18308m | 0.9m/s | 0°C | 0% | 0hPa | 0V | 00:00:00 | 00:00:00 | 00:00:00 | |
| OM5KV | 2026-09-03 07:33:24 | 50.63399 | 21.64643 | 103° | 38km/h | 18285m | 4.0m/s | 0°C | 0% | 0hPa | 0V | 00:00:00 | 00:00:00 | 00:00:00 | |
| OM5KV | 2026-09-03 07:33:22 | 50.63401 | 21.64627 | 35° | 4km/h | 18277m | 2.5m/s | 0°C | 0% | 0hPa | 0V | 00:00:00 | 00:00:00 | 00:00:00 | |
| OM5KV | 2026-09-03 07:33:20 | 50.63403 | 21.64612 | 101° | 38km/h | 18271m | 0.7m/s | 0°C | 0% | 0hPa | 0V | 00:00:00 | 00:00:00 | 00:00:00 | |
| OM5KV | 2026-09-03 07:33:18 | 50.63403 | 21.64594 | 136° | 5km/h | 18265m | 1.3m/s | 0°C | 0% | 0hPa | 0V | 00:00:00 | 00:00:00 | 00:00:00 | |
| SP9KGR-15 | 2026-09-03 07:33:16 | 50.63406 | 21.64577 | 97° | 33km/h | 18258m | 1.4m/s | 0°C | 0% | 0hPa | 0V | 00:00:00 | 00:00:00 | 00:00:00 | |
| SP9KGR-15 | 2026-09-03 07:33:01 | 50.63420 | 21.64462 | 116° | 22km/h | 18197m | 3.5m/s | 0°C | 0% | 0hPa | 0V | 00:00:00 | 00:00:00 | 00:00:00 | |
| SQ9PSP-11 | 2026-09-03 07:33:00 | 50.63420 | 21.64451 | 73° | 38km/h | 18193m | 2.4m/s | 0°C | 0% | 0hPa | 0V | 00:00:00 | 00:00:00 | 00:00:00 | |
| OM5KV | 2026-09-03 07:32:56 | 50.63421 | 21.64412 | 84° | 40km/h | 18179m | 2.3m/s | 0°C | 0% | 0hPa | 0V | 00:00:00 | 00:00:00 | 00:00:00 | |
| OM5KV | 2026-09-03 07:32:50 | 50.63430 | 21.64347 | 116° | 29km/h | 18155m | 1.2m/s | 0°C | 0% | 0hPa | 0V | 00:00:00 | 00:00:00 | 00:00:00 | |
| SP9KGR-15 | 2026-09-03 07:32:46 | 50.63435 | 21.64303 | 106° | 27km/h | 18142m | 2.9m/s | 0°C | 0% | 0hPa | 0V | 00:00:00 | 00:00:00 | 00:00:00 | |
| SQ9PSP-11 | 2026-09-03 07:32:43 | 50.63434 | 21.64263 | 133° | 31km/h | 18131m | 3.1m/s | 0°C | 0% | 0hPa | 0V | 00:00:00 | 00:00:00 | 00:00:00 | |
| OM5KV | 2026-09-03 07:32:37 | 50.63438 | 21.64184 | 74° | 42km/h | 18109m | 1.5m/s | 0°C | 0% | 0hPa | 0V | 00:00:00 | 00:00:00 | 00:00:00 | |
| OM5KV | 2026-09-03 07:32:32 | 50.63440 | 21.64118 | 106° | 31km/h | 18093m | 4.7m/s | 0°C | 0% | 0hPa | 0V | 00:00:00 | 00:00:00 | 00:00:00 | |
| OM5KV | 2026-09-03 07:32:31 | 50.63440 | 21.64108 | 91° | 24km/h | 18089m | 3.9m/s | 0°C | 0% | 0hPa | 0V | 00:00:00 | 00:00:00 | 00:00:00 | |
| OM5KV | 2026-09-03 07:32:29 | 50.63438 | 21.64080 | 100° | 42km/h | 18082m | 2.8m/s | 0°C | 0% | 0hPa | 0V | 00:00:00 | 00:00:00 | 00:00:00 | |
| SP9KGR-15 | 2026-09-03 07:32:28 | 50.63439 | 21.64068 | 94° | 18km/h | 18079m | 5.9m/s | 0°C | 0% | 0hPa | 0V | 00:00:00 | 00:00:00 | 00:00:00 | |
| SQ9PSP-11 | 2026-09-03 07:32:27 | 50.63438 | 21.64058 | 74° | 35km/h | 18073m | 5.3m/s | 0°C | 0% | 0hPa | 0V | 00:00:00 | 00:00:00 | 00:00:00 | |
| OM5KV | 2026-09-03 07:32:26 | 50.63438 | 21.64044 | 103° | 38km/h | 18070m | 0.9m/s | 0°C | 0% | 0hPa | 0V | 00:00:00 | 00:00:00 | 00:00:00 | |
| OM5KV | 2026-09-03 07:32:19 | 50.63438 | 21.63968 | 119° | 18km/h | 18041m | 1.8m/s | 0°C | 0% | 0hPa | 0V | 00:00:00 | 00:00:00 | 00:00:00 | |
| SP9KGR-15 | 2026-09-03 07:32:12 | 50.63437 | 21.63900 | 75° | 13km/h | 18014m | 0.3m/s | 0°C | 0% | 0hPa | 0V | 00:00:00 | 00:00:00 | 00:00:00 | |
| OM5KV | 2026-09-03 07:32:08 | 50.63436 | 21.63864 | 72° | 20km/h | 17998m | 3.2m/s | 0°C | 0% | 0hPa | 0V | 00:00:00 | 00:00:00 | 00:00:00 | |
| OM5KV | 2026-09-03 07:32:07 | 50.63435 | 21.63852 | 95° | 42km/h | 17994m | 4.0m/s | 0°C | 0% | 0hPa | 0V | 00:00:00 | 00:00:00 | 00:00:00 | |
| OM5KV | 2026-09-03 07:32:03 | 50.63434 | 21.63819 | 124° | 22km/h | 17980m | 1.5m/s | 0°C | 0% | 0hPa | 0V | 00:00:00 | 00:00:00 | 00:00:00 | |
| OM5KV | 2026-09-03 07:32:00 | 50.63432 | 21.63798 | 102° | 20km/h | 17966m | 5.4m/s | 0°C | 0% | 0hPa | 0V | 00:00:00 | 00:00:00 | 00:00:00 | |
| SQ9PSP-11 | 2026-09-03 07:31:57 | 50.63433 | 21.63773 | 72° | 5km/h | 17955m | 2.6m/s | 0°C | 0% | 0hPa | 0V | 00:00:00 | 00:00:00 | 00:00:00 | |
| SP9KGR-15 | 2026-09-03 07:31:56 | 50.63435 | 21.63767 | 116° | 26km/h | 17952m | 2.2m/s | 0°C | 0% | 0hPa | 0V | 00:00:00 | 00:00:00 | 00:00:00 | |
| OM5KV | 2026-09-03 07:31:48 | 50.63434 | 21.63708 | 82° | 18km/h | 17922m | 1.7m/s | 0°C | 0% | 0hPa | 0V | 00:00:00 | 00:00:00 | 00:00:00 | |
| OM5KV | 2026-09-03 07:31:42 | 50.63442 | 21.63663 | 100° | 11km/h | 17901m | 3.5m/s | 0°C | 0% | 0hPa | 0V | 00:00:00 | 00:00:00 | 00:00:00 | |
| OM5KV | 2026-09-03 07:31:41 | 50.63441 | 21.63656 | 67° | 26km/h | 17898m | 3.5m/s | 0°C | 0% | 0hPa | 0V | 00:00:00 | 00:00:00 | 00:00:00 | |
| OM5KV | 2026-09-03 07:31:34 | 50.63447 | 21.63595 | 101° | 27km/h | 17871m | 2.2m/s | 0°C | 0% | 0hPa | 0V | 00:00:00 | 00:00:00 | 00:00:00 | |
| OM5KV | 2026-09-03 07:31:29 | 50.63458 | 21.63553 | 153° | 22km/h | 17854m | -0.1m/s | 0°C | 0% | 0hPa | 0V | 00:00:00 | 00:00:00 | 00:00:00 | |
| OM5KV | 2026-09-03 07:31:27 | 50.63464 | 21.63537 | 101° | 33km/h | 17847m | -0.9m/s | 0°C | 0% | 0hPa | 0V | 00:00:00 | 00:00:00 | 00:00:00 | |
| SQ9PSP-11 | 2026-09-03 07:31:25 | 50.63471 | 21.63520 | 129° | 20km/h | 17840m | 1.6m/s | 0°C | 0% | 0hPa | 0V | 00:00:00 | 00:00:00 | 00:00:00 | |
| OM5KV | 2026-09-03 07:31:10 | 50.63512 | 21.63341 | 133° | 38km/h | 17778m | 3.1m/s | 0°C | 0% | 0hPa | 0V | 00:00:00 | 00:00:00 | 00:00:00 | |
| OM5KV | 2026-09-03 07:31:09 | 50.63518 | 21.63329 | 112° | 33km/h | 17775m | 5.8m/s | 0°C | 0% | 0hPa | 0V | 00:00:00 | 00:00:00 | 00:00:00 | |
| OM5KV | 2026-09-03 07:31:04 | 50.63525 | 21.63267 | 116° | 29km/h | 17756m | 2.2m/s | 0°C | 0% | 0hPa | 0V | 00:00:00 | 00:00:00 | 00:00:00 | |
| SP9KGR-15 | 2026-09-03 07:31:02 | 50.63530 | 21.63236 | 99° | 40km/h | 17749m | 3.3m/s | 0°C | 0% | 0hPa | 0V | 00:00:00 | 00:00:00 | 00:00:00 | |
| OM5KV | 2026-09-03 07:30:53 | 50.63545 | 21.63124 | 129° | 27km/h | 17718m | 0.8m/s | 0°C | 0% | 0hPa | 0V | 00:00:00 | 00:00:00 | 00:00:00 | |
| SQ9PSP-11 | 2026-09-03 07:30:51 | 50.63550 | 21.63095 | 101° | 44km/h | 17709m | 0.8m/s | 0°C | 0% | 0hPa | 0V | 00:00:00 | 00:00:00 | 00:00:00 | |
| OM5KV | 2026-09-03 07:30:48 | 50.63557 | 21.63056 | 93° | 51km/h | 17697m | 5.1m/s | 0°C | 0% | 0hPa | 0V | 00:00:00 | 00:00:00 | 00:00:00 | |
| SP9KGR-15 | 2026-09-03 07:30:42 | 50.63571 | 21.62969 | 105° | 24km/h | 17671m | 4.0m/s | 0°C | 0% | 0hPa | 0V | 00:00:00 | 00:00:00 | 00:00:00 | |
| OM5KV | 2026-09-03 07:30:38 | 50.63581 | 21.62912 | 98° | 51km/h | 17657m | 1.7m/s | 0°C | 0% | 0hPa | 0V | 00:00:00 | 00:00:00 | 00:00:00 | |
| OM5KV | 2026-09-03 07:30:36 | 50.63586 | 21.62878 | 92° | 33km/h | 17652m | -0.4m/s | 0°C | 0% | 0hPa | 0V | 00:00:00 | 00:00:00 | 00:00:00 | |
| SQ9PSP-11 | 2026-09-03 07:30:34 | 50.63590 | 21.62840 | 102° | 49km/h | 17644m | 1.3m/s | 0°C | 0% | 0hPa | 0V | 00:00:00 | 00:00:00 | 00:00:00 | |
| OM5KV | 2026-09-03 07:30:30 | 50.63597 | 21.62769 | 101° | 49km/h | 17629m | 3.4m/s | 0°C | 0% | 0hPa | 0V | 00:00:00 | 00:00:00 | 00:00:00 | |
| OM5KV | 2026-09-03 07:30:23 | 50.63603 | 21.62644 | 88° | 53km/h | 17604m | 3.0m/s | 0°C | 0% | 0hPa | 0V | 00:00:00 | 00:00:00 | 00:00:00 | |
| OM5KV | 2026-09-03 07:30:21 | 50.63605 | 21.62616 | 101° | 40km/h | 17596m | 2.1m/s | 0°C | 0% | 0hPa | 0V | 00:00:00 | 00:00:00 | 00:00:00 | |
| SQ9PSP-11 | 2026-09-03 07:30:16 | 50.63607 | 21.62521 | 76° | 51km/h | 17577m | 2.5m/s | 0°C | 0% | 0hPa | 0V | 00:00:00 | 00:00:00 | 00:00:00 | |
| OM5KV | 2026-09-03 07:30:08 | 50.63610 | 21.62382 | 104° | 40km/h | 17549m | 1.9m/s | 0°C | 0% | 0hPa | 0V | 00:00:00 | 00:00:00 | 00:00:00 | |
| SQ9PSP-11 | 2026-09-03 07:30:01 | 50.63615 | 21.62267 | 107° | 40km/h | 17523m | 2.2m/s | 0°C | 0% | 0hPa | 0V | 00:00:00 | 00:00:00 | 00:00:00 | |
| OM5KV | 2026-09-03 07:29:51 | 50.63625 | 21.62102 | 103° | 51km/h | 17485m | 4.6m/s | 0°C | 0% | 0hPa | 0V | 00:00:00 | 00:00:00 | 00:00:00 | |
| SP9KGR-15 | 2026-09-03 07:29:48 | 50.63631 | 21.62056 | 91° | 49km/h | 17475m | 2.0m/s | 0°C | 0% | 0hPa | 0V | 00:00:00 | 00:00:00 | 00:00:00 | |
| SQ9PSP-11 | 2026-09-03 07:29:45 | 50.63637 | 21.62008 | 91° | 57km/h | 17464m | 1.3m/s | 0°C | 0% | 0hPa | 0V | 00:00:00 | 00:00:00 | 00:00:00 | |
| OM5KV | 2026-09-03 07:29:40 | 50.63651 | 21.61930 | 119° | 29km/h | 17446m | 1.4m/s | 0°C | 0% | 0hPa | 0V | 00:00:00 | 00:00:00 | 00:00:00 | |
| OM5KV | 2026-09-03 07:29:39 | 50.63653 | 21.61916 | 101° | 46km/h | 17442m | 5.5m/s | 0°C | 0% | 0hPa | 0V | 00:00:00 | 00:00:00 | 00:00:00 | |
| SP9KGR-15 | 2026-09-03 07:29:32 | 50.63673 | 21.61816 | 104° | 38km/h | 17415m | 4.5m/s | 0°C | 0% | 0hPa | 0V | 00:00:00 | 00:00:00 | 00:00:00 | |
| OM5KV | 2026-09-03 07:29:31 | 50.63677 | 21.61799 | 117° | 57km/h | 17412m | 1.0m/s | 0°C | 0% | 0hPa | 0V | 00:00:00 | 00:00:00 | 00:00:00 | |
| SQ9PSP-11 | 2026-09-03 07:29:29 | 50.63686 | 21.61771 | 94° | 38km/h | 17404m | 1.1m/s | 0°C | 0% | 0hPa | 0V | 00:00:00 | 00:00:00 | 00:00:00 | |
| SP9KGR-15 | 2026-09-03 07:29:17 | 50.63725 | 21.61567 | 123° | 38km/h | 17360m | -0.6m/s | 0°C | 0% | 0hPa | 0V | 00:00:00 | 00:00:00 | 00:00:00 | |
| SQ9PSP-11 | 2026-09-03 07:29:13 | 50.63738 | 21.61505 | 112° | 37km/h | 17345m | 1.9m/s | 0°C | 0% | 0hPa | 0V | 00:00:00 | 00:00:00 | 00:00:00 | |
| OM5KV | 2026-09-03 07:29:06 | 50.63756 | 21.61399 | 136° | 31km/h | 17320m | 1.8m/s | 0°C | 0% | 0hPa | 0V | 00:00:00 | 00:00:00 | 00:00:00 | |
| OM5KV | 2026-09-03 07:29:00 | 50.63774 | 21.61312 | 95° | 38km/h | 17299m | 2.0m/s | 0°C | 0% | 0hPa | 0V | 00:00:00 | 00:00:00 | 00:00:00 | |
| SP9KGR-15 | 2026-09-03 07:28:59 | 50.63776 | 21.61299 | 119° | 29km/h | 17294m | 6.2m/s | 0°C | 0% | 0hPa | 0V | 00:00:00 | 00:00:00 | 00:00:00 | |
| SQ9PSP-11 | 2026-09-03 07:28:58 | 50.63781 | 21.61284 | 115° | 51km/h | 17289m | 3.5m/s | 0°C | 0% | 0hPa | 0V | 00:00:00 | 00:00:00 | 00:00:00 | |
| OM5KV | 2026-09-03 07:28:52 | 50.63797 | 21.61197 | 109° | 37km/h | 17265m | 1.9m/s | 0°C | 0% | 0hPa | 0V | 00:00:00 | 00:00:00 | 00:00:00 | |
| SQ9PSP-11 | 2026-09-03 07:28:41 | 50.63824 | 21.61018 | 116° | 53km/h | 17228m | 1.8m/s | 0°C | 0% | 0hPa | 0V | 00:00:00 | 00:00:00 | 00:00:00 | |
| OM5KV | 2026-09-03 07:28:37 | 50.63834 | 21.60950 | 107° | 57km/h | 17213m | 2.1m/s | 0°C | 0% | 0hPa | 0V | 00:00:00 | 00:00:00 | 00:00:00 | |
| OM5KV | 2026-09-03 07:28:32 | 50.63845 | 21.60864 | 94° | 38km/h | 17194m | 2.0m/s | 0°C | 0% | 0hPa | 0V | 00:00:00 | 00:00:00 | 00:00:00 | |
| SQ9PSP-11 | 2026-09-03 07:28:26 | 50.63861 | 21.60759 | 92° | 38km/h | 17174m | -0.1m/s | 0°C | 0% | 0hPa | 0V | 00:00:00 | 00:00:00 | 00:00:00 | |
| OM5KV | 2026-09-03 07:28:15 | 50.63873 | 21.60564 | 92° | 35km/h | 17133m | 1.9m/s | 0°C | 0% | 0hPa | 0V | 00:00:00 | 00:00:00 | 00:00:00 | |
| SQ9PSP-11 | 2026-09-03 07:28:11 | 50.63873 | 21.60494 | 89° | 40km/h | 17116m | 2.7m/s | 0°C | 0% | 0hPa | 0V | 00:00:00 | 00:00:00 | 00:00:00 | |
| OM5KV | 2026-09-03 07:28:02 | 50.63877 | 21.60345 | 108° | 40km/h | 17084m | 2.0m/s | 0°C | 0% | 0hPa | 0V | 00:00:00 | 00:00:00 | 00:00:00 | |
| SQ9PSP-11 | 2026-09-03 07:27:55 | 50.63882 | 21.60240 | 104° | 53km/h | 17057m | 3.8m/s | 0°C | 0% | 0hPa | 0V | 00:00:00 | 00:00:00 | 00:00:00 | |
| OM5KV | 2026-09-03 07:27:52 | 50.63885 | 21.60194 | 98° | 42km/h | 17045m | 5.7m/s | 0°C | 0% | 0hPa | 0V | 00:00:00 | 00:00:00 | 00:00:00 | |
| OM5KV | 2026-09-03 07:27:40 | 50.63902 | 21.60014 | 116° | 38km/h | 16999m | 2.1m/s | 0°C | 0% | 0hPa | 0V | 00:00:00 | 00:00:00 | 00:00:00 | |
| SQ9PSP-11 | 2026-09-03 07:27:38 | 50.63904 | 21.59989 | 84° | 33km/h | 16992m | 3.5m/s | 0°C | 0% | 0hPa | 0V | 00:00:00 | 00:00:00 | 00:00:00 | |
| SP9KGR-15 | 2026-09-03 07:27:34 | 50.63908 | 21.59934 | 107° | 29km/h | 16976m | 2.7m/s | 0°C | 0% | 0hPa | 0V | 00:00:00 | 00:00:00 | 00:00:00 | |
| OM5KV | 2026-09-03 07:27:27 | 50.63921 | 21.59838 | 130° | 31km/h | 16951m | 0.3m/s | 0°C | 0% | 0hPa | 0V | 00:00:00 | 00:00:00 | 00:00:00 | |
| SQ9PSP-11 | 2026-09-03 07:27:22 | 50.63934 | 21.59773 | 95° | 47km/h | 16932m | 4.5m/s | 0°C | 0% | 0hPa | 0V | 00:00:00 | 00:00:00 | 00:00:00 | |
| SP9KGR-15 | 2026-09-03 07:27:18 | 50.63942 | 21.59719 | 95° | 27km/h | 16917m | 2.5m/s | 0°C | 0% | 0hPa | 0V | 00:00:00 | 00:00:00 | 00:00:00 | |
| OM5KV | 2026-09-03 07:27:12 | 50.63963 | 21.59652 | 90° | 33km/h | 16896m | 2.6m/s | 0°C | 0% | 0hPa | 0V | 00:00:00 | 00:00:00 | 00:00:00 | |
| OM5KV | 2026-09-03 07:27:06 | 50.63989 | 21.59584 | 133° | 31km/h | 16871m | 2.3m/s | 0°C | 0% | 0hPa | 0V | 00:00:00 | 00:00:00 | 00:00:00 | |
| SP9KGR-15 | 2026-09-03 07:27:01 | 50.64010 | 21.59520 | 98° | 35km/h | 16854m | 0.2m/s | 0°C | 0% | 0hPa | 0V | 00:00:00 | 00:00:00 | 00:00:00 | |
| OM5KV | 2026-09-03 07:26:59 | 50.64021 | 21.59497 | 121° | 47km/h | 16847m | 3.8m/s | 0°C | 0% | 0hPa | 0V | 00:00:00 | 00:00:00 | 00:00:00 | |
| OM5KV | 2026-09-03 07:26:58 | 50.64025 | 21.59484 | 99° | 27km/h | 16845m | 1.0m/s | 0°C | 0% | 0hPa | 0V | 00:00:00 | 00:00:00 | 00:00:00 | |
| OM5KV | 2026-09-03 07:26:53 | 50.64049 | 21.59419 | 121° | 42km/h | 16827m | 1.1m/s | 0°C | 0% | 0hPa | 0V | 00:00:00 | 00:00:00 | 00:00:00 | |
| SQ9PSP-11 | 2026-09-03 07:26:51 | 50.64056 | 21.59400 | 112° | 33km/h | 16818m | 3.5m/s | 0°C | 0% | 0hPa | 0V | 00:00:00 | 00:00:00 | 00:00:00 | |
| SP9KGR-15 | 2026-09-03 07:26:45 | 50.64084 | 21.59310 | 122° | 37km/h | 16796m | 4.1m/s | 0°C | 0% | 0hPa | 0V | 00:00:00 | 00:00:00 | 00:00:00 | |
| SQ9PSP-11 | 2026-09-03 07:26:35 | 50.64132 | 21.59166 | 116° | 57km/h | 16761m | 2.0m/s | 0°C | 0% | 0hPa | 0V | 00:00:00 | 00:00:00 | 00:00:00 | |
| OM5KV | 2026-09-03 07:26:30 | 50.64151 | 21.59090 | 104° | 31km/h | 16744m | 4.5m/s | 0°C | 0% | 0hPa | 0V | 00:00:00 | 00:00:00 | 00:00:00 | |
| OM5KV | 2026-09-03 07:26:28 | 50.64161 | 21.59059 | 104° | 49km/h | 16738m | 1.8m/s | 0°C | 0% | 0hPa | 0V | 00:00:00 | 00:00:00 | 00:00:00 | |
| SP9KGR-15 | 2026-09-03 07:26:27 | 50.64164 | 21.59046 | 128° | 20km/h | 16736m | 2.7m/s | 0°C | 0% | 0hPa | 0V | 00:00:00 | 00:00:00 | 00:00:00 | |
| OM5KV | 2026-09-03 07:26:19 | 50.64191 | 21.58936 | 110° | 37km/h | 16702m | 4.3m/s | 0°C | 0% | 0hPa | 0V | 00:00:00 | 00:00:00 | 00:00:00 | |
| SQ9PSP-11 | 2026-09-03 07:26:18 | 50.64194 | 21.58918 | 104° | 57km/h | 16700m | 0.7m/s | 0°C | 0% | 0hPa | 0V | 00:00:00 | 00:00:00 | 00:00:00 | |
| SP9KGR-15 | 2026-09-03 07:26:08 | 50.64227 | 21.58748 | 99° | 58km/h | 16660m | 2.7m/s | 0°C | 0% | 0hPa | 0V | 00:00:00 | 00:00:00 | 00:00:00 | |
| OM5KV | 2026-09-03 07:26:07 | 50.64227 | 21.58748 | 99° | 58km/h | 16660m | 2.7m/s | 0°C | 0% | 0hPa | 0V | 00:00:00 | 00:00:00 | 00:00:00 | |
| OM5KV | 2026-09-03 07:26:03 | 50.64236 | 21.58681 | 108° | 49km/h | 16647m | 2.8m/s | 0°C | 0% | 0hPa | 0V | 00:00:00 | 00:00:00 | 00:00:00 | |
| OM5KV | 2026-09-03 07:26:02 | 50.64238 | 21.58666 | 84° | 31km/h | 16645m | 2.3m/s | 0°C | 0% | 0hPa | 0V | 00:00:00 | 00:00:00 | 00:00:00 | |
| SQ9PSP-11 | 2026-09-03 07:25:57 | 50.64245 | 21.58586 | 114° | 53km/h | 16625m | 2.4m/s | 0°C | 0% | 0hPa | 0V | 00:00:00 | 00:00:00 | 00:00:00 | |
| OM5KV | 2026-09-03 07:25:51 | 50.64252 | 21.58495 | 86° | 33km/h | 16603m | 1.5m/s | 0°C | 0% | 0hPa | 0V | 00:00:00 | 00:00:00 | 00:00:00 | |
| OM5KV | 2026-09-03 07:25:43 | 50.64263 | 21.58365 | 96° | 51km/h | 16575m | 2.2m/s | 0°C | 0% | 0hPa | 0V | 00:00:00 | 00:00:00 | 00:00:00 | |
| SQ9PSP-11 | 2026-09-03 07:25:40 | 50.64264 | 21.58319 | 96° | 51km/h | 16562m | 1.3m/s | 0°C | 0% | 0hPa | 0V | 00:00:00 | 00:00:00 | 00:00:00 | |
| SP9KGR-15 | 2026-09-03 07:25:34 | 50.64264 | 21.58227 | 93° | 51km/h | 16541m | 5.0m/s | 0°C | 0% | 0hPa | 0V | 00:00:00 | 00:00:00 | 00:00:00 | |
| OM5KV | 2026-09-03 07:25:31 | 50.64266 | 21.58184 | 102° | 40km/h | 16530m | 3.3m/s | 0°C | 0% | 0hPa | 0V | 00:00:00 | 00:00:00 | 00:00:00 | |
| SQ9PSP-11 | 2026-09-03 07:25:24 | 50.64262 | 21.58069 | 78° | 44km/h | 16504m | 1.9m/s | 0°C | 0% | 0hPa | 0V | 00:00:00 | 00:00:00 | 00:00:00 | |
| SP9KGR-15 | 2026-09-03 07:25:18 | 50.64265 | 21.57951 | 65° | 42km/h | 16484m | 2.9m/s | 0°C | 0% | 0hPa | 0V | 00:00:00 | 00:00:00 | 00:00:00 | |
| OM5KV | 2026-09-03 07:25:16 | 50.64264 | 21.57916 | 100° | 44km/h | 16477m | 1.2m/s | 0°C | 0% | 0hPa | 0V | 00:00:00 | 00:00:00 | 00:00:00 | |
| SQ9PSP-11 | 2026-09-03 07:25:07 | 50.64262 | 21.57754 | 108° | 57km/h | 16442m | 4.8m/s | 0°C | 0% | 0hPa | 0V | 00:00:00 | 00:00:00 | 00:00:00 | |
| SP9KGR-15 | 2026-09-03 07:25:01 | 50.64265 | 21.57645 | 113° | 44km/h | 16416m | 6.1m/s | 0°C | 0% | 0hPa | 0V | 00:00:00 | 00:00:00 | 00:00:00 | |
| OM5KV | 2026-09-03 07:24:59 | 50.64265 | 21.57609 | 72° | 58km/h | 16409m | 1.9m/s | 0°C | 0% | 0hPa | 0V | 00:00:00 | 00:00:00 | 00:00:00 | |
| OM5KV | 2026-09-03 07:24:54 | 50.64264 | 21.57525 | 100° | 27km/h | 16391m | 5.6m/s | 0°C | 0% | 0hPa | 0V | 00:00:00 | 00:00:00 | 00:00:00 | |
| OM5KV | 2026-09-03 07:24:49 | 50.64265 | 21.57447 | 74° | 42km/h | 16372m | 0.2m/s | 0°C | 0% | 0hPa | 0V | 00:00:00 | 00:00:00 | 00:00:00 | |
| OM5KV | 2026-09-03 07:24:32 | 50.64249 | 21.57186 | 78° | 26km/h | 16307m | 0.4m/s | 0°C | 0% | 0hPa | 0V | 00:00:00 | 00:00:00 | 00:00:00 | |
| OM5KV | 2026-09-03 07:24:23 | 50.64231 | 21.57045 | 99° | 22km/h | 16273m | 0.7m/s | 0°C | 0% | 0hPa | 0V | 00:00:00 | 00:00:00 | 00:00:00 | |
| OM5KV | 2026-09-03 07:24:05 | 50.64206 | 21.56798 | 102° | 37km/h | 16204m | 4.4m/s | 0°C | 0% | 0hPa | 0V | 00:00:00 | 00:00:00 | 00:00:00 | |
| OM5KV | 2026-09-03 07:23:57 | 50.64195 | 21.56676 | 80° | 44km/h | 16172m | 2.5m/s | 0°C | 0% | 0hPa | 0V | 00:00:00 | 00:00:00 | 00:00:00 | |
| OM5KV | 2026-09-03 07:23:06 | 50.64221 | 21.55983 | 124° | 38km/h | 15975m | 0.2m/s | 0°C | 0% | 0hPa | 0V | 00:00:00 | 00:00:00 | 00:00:00 | |
| SP9KGR-15 | 2026-09-03 07:22:50 | 50.64264 | 21.55794 | 106° | 27km/h | 15911m | 1.1m/s | 0°C | 0% | 0hPa | 0V | 00:00:00 | 00:00:00 | 00:00:00 | |
| SQ9PSP-11 | 2026-09-03 07:22:25 | 50.64375 | 21.55571 | 149° | 24km/h | 15814m | 3.2m/s | 0°C | 0% | 0hPa | 0V | 00:00:00 | 00:00:00 | 00:00:00 | |
| SQ9PSP-11 | 2026-09-03 07:22:09 | 50.64467 | 21.55438 | 156° | 22km/h | 15750m | 1.8m/s | 0°C | 0% | 0hPa | 0V | 00:00:00 | 00:00:00 | 00:00:00 | |
| OM5KV | 2026-09-03 07:22:04 | 50.64502 | 21.55394 | 141° | 46km/h | 15730m | 4.8m/s | 0°C | 0% | 0hPa | 0V | 00:00:00 | 00:00:00 | 00:00:00 | |
| OM5KV | 2026-09-03 07:22:03 | 50.64510 | 21.55384 | 138° | 37km/h | 15726m | 2.5m/s | 0°C | 0% | 0hPa | 0V | 00:00:00 | 00:00:00 | 00:00:00 | |
| SQ9PSP-11 | 2026-09-03 07:21:52 | 50.64599 | 21.55281 | 151° | 38km/h | 15681m | 2.0m/s | 0°C | 0% | 0hPa | 0V | 00:00:00 | 00:00:00 | 00:00:00 | |
| OM5KV | 2026-09-03 07:21:35 | 50.64736 | 21.55077 | 158° | 44km/h | 15619m | 4.7m/s | 0°C | 0% | 0hPa | 0V | 00:00:00 | 00:00:00 | 00:00:00 | |
| OM5KV | 2026-09-03 07:21:33 | 50.64753 | 21.55051 | 121° | 42km/h | 15612m | 2.3m/s | 0°C | 0% | 0hPa | 0V | 00:00:00 | 00:00:00 | 00:00:00 | |
| SQ9PSP-11 | 2026-09-03 07:21:19 | 50.64865 | 21.54887 | 152° | 38km/h | 15559m | 3.8m/s | 0°C | 0% | 0hPa | 0V | 00:00:00 | 00:00:00 | 00:00:00 | |
| OM5KV | 2026-09-03 07:21:15 | 50.64896 | 21.54839 | 143° | 37km/h | 15545m | 3.1m/s | 0°C | 0% | 0hPa | 0V | 00:00:00 | 00:00:00 | 00:00:00 | |
| OM5KV | 2026-09-03 07:21:10 | 50.64937 | 21.54764 | 133° | 55km/h | 15528m | 3.3m/s | 0°C | 0% | 0hPa | 0V | 00:00:00 | 00:00:00 | 00:00:00 | |
| SQ9PSP-11 | 2026-09-03 07:21:03 | 50.64993 | 21.54658 | 123° | 57km/h | 15505m | 1.6m/s | 0°C | 0% | 0hPa | 0V | 00:00:00 | 00:00:00 | 00:00:00 | |
| OM5KV | 2026-09-03 07:20:52 | 50.65086 | 21.54489 | 136° | 42km/h | 15469m | 0.2m/s | 0°C | 0% | 0hPa | 0V | 00:00:00 | 00:00:00 | 00:00:00 | |
| SQ9PSP-11 | 2026-09-03 07:20:46 | 50.65134 | 21.54391 | 137° | 46km/h | 15447m | 4.2m/s | 0°C | 0% | 0hPa | 0V | 00:00:00 | 00:00:00 | 00:00:00 | |
| OM5KV | 2026-09-03 07:20:45 | 50.65140 | 21.54378 | 119° | 37km/h | 15444m | 1.8m/s | 0°C | 0% | 0hPa | 0V | 00:00:00 | 00:00:00 | 00:00:00 | |
| SQ9PSP-11 | 2026-09-03 07:20:30 | 50.65233 | 21.54116 | 128° | 38km/h | 15393m | 2.4m/s | 0°C | 0% | 0hPa | 0V | 00:00:00 | 00:00:00 | 00:00:00 | |
| OM5KV | 2026-09-03 07:20:24 | 50.65272 | 21.54021 | 124° | 42km/h | 15372m | 1.3m/s | 0°C | 0% | 0hPa | 0V | 00:00:00 | 00:00:00 | 00:00:00 | |
| SQ9PSP-11 | 2026-09-03 07:20:12 | 50.65355 | 21.53825 | 120° | 62km/h | 15334m | 2.0m/s | 0°C | 0% | 0hPa | 0V | 00:00:00 | 00:00:00 | 00:00:00 | |
| OM5KV | 2026-09-03 07:20:06 | 50.65396 | 21.53727 | 124° | 60km/h | 15313m | 2.7m/s | 0°C | 0% | 0hPa | 0V | 00:00:00 | 00:00:00 | 00:00:00 | |
| OM5KV | 2026-09-03 07:19:53 | 50.65481 | 21.53502 | 99° | 46km/h | 15268m | 1.8m/s | 0°C | 0% | 0hPa | 0V | 00:00:00 | 00:00:00 | 00:00:00 | |
| OM5KV | 2026-09-03 07:19:45 | 50.65536 | 21.53349 | 116° | 62km/h | 15238m | 1.3m/s | 0°C | 0% | 0hPa | 0V | 00:00:00 | 00:00:00 | 00:00:00 | |
| SQ9PSP-11 | 2026-09-03 07:19:38 | 50.65577 | 21.53209 | 127° | 66km/h | 15214m | 0.7m/s | 0°C | 0% | 0hPa | 0V | 00:00:00 | 00:00:00 | 00:00:00 | |
| SQ9PSP-11 | 2026-09-03 07:19:23 | 50.65675 | 21.52904 | 114° | 64km/h | 15156m | 1.5m/s | 0°C | 0% | 0hPa | 0V | 00:00:00 | 00:00:00 | 00:00:00 | |
| SQ9PSP-11 | 2026-09-03 07:19:07 | 50.65773 | 21.52553 | 101° | 53km/h | 15102m | 0.3m/s | 0°C | 0% | 0hPa | 0V | 00:00:00 | 00:00:00 | 00:00:00 | |
| OM5KV | 2026-09-03 07:19:00 | 50.65808 | 21.52395 | 98° | 51km/h | 15075m | 0.3m/s | 0°C | 0% | 0hPa | 0V | 00:00:00 | 00:00:00 | 00:00:00 | |
| SQ9PSP-11 | 2026-09-03 07:18:51 | 50.65843 | 21.52191 | 111° | 53km/h | 15042m | 2.6m/s | 0°C | 0% | 0hPa | 0V | 00:00:00 | 00:00:00 | 00:00:00 | |
| OM5KV | 2026-09-03 07:18:43 | 50.65859 | 21.52005 | 101° | 60km/h | 15011m | 2.5m/s | 0°C | 0% | 0hPa | 0V | 00:00:00 | 00:00:00 | 00:00:00 | |
| OM5KV | 2026-09-03 07:18:37 | 50.65868 | 21.51874 | 90° | 66km/h | 14991m | 1.1m/s | 0°C | 0% | 0hPa | 0V | 00:00:00 | 00:00:00 | 00:00:00 | |
| SQ9PSP-11 | 2026-09-03 07:18:35 | 50.65873 | 21.51834 | 104° | 55km/h | 14984m | 2.8m/s | 0°C | 0% | 0hPa | 0V | 00:00:00 | 00:00:00 | 00:00:00 | |
| OM5KV | 2026-09-03 07:18:29 | 50.65879 | 21.51700 | 102° | 49km/h | 14964m | 1.8m/s | 0°C | 0% | 0hPa | 0V | 00:00:00 | 00:00:00 | 00:00:00 | |
| SQ9PSP-11 | 2026-09-03 07:18:18 | 50.65892 | 21.51468 | 95° | 58km/h | 14923m | 1.4m/s | 0°C | 0% | 0hPa | 0V | 00:00:00 | 00:00:00 | 00:00:00 | |
| OM5KV | 2026-09-03 07:18:06 | 50.65914 | 21.51234 | 85° | 53km/h | 14881m | 5.2m/s | 0°C | 0% | 0hPa | 0V | 00:00:00 | 00:00:00 | 00:00:00 | |
| SQ9PSP-11 | 2026-09-03 07:18:01 | 50.65928 | 21.51127 | 115° | 53km/h | 14862m | 0.5m/s | 0°C | 0% | 0hPa | 0V | 00:00:00 | 00:00:00 | 00:00:00 | |
| OM5KV | 2026-09-03 07:17:58 | 50.65936 | 21.51062 | 115° | 62km/h | 14850m | 1.4m/s | 0°C | 0% | 0hPa | 0V | 00:00:00 | 00:00:00 | 00:00:00 | |
| OM5KV | 2026-09-03 07:17:53 | 50.65953 | 21.50932 | 111° | 62km/h | 14827m | 4.8m/s | 0°C | 0% | 0hPa | 0V | 00:00:00 | 00:00:00 | 00:00:00 | |
| SQ9PSP-11 | 2026-09-03 07:17:43 | 50.65979 | 21.50747 | 98° | 51km/h | 14797m | 4.3m/s | 0°C | 0% | 0hPa | 0V | 00:00:00 | 00:00:00 | 00:00:00 | |
| OM5KV | 2026-09-03 07:17:41 | 50.65985 | 21.50712 | 120° | 53km/h | 14790m | 6.0m/s | 0°C | 0% | 0hPa | 0V | 00:00:00 | 00:00:00 | 00:00:00 | |
| OM5KV | 2026-09-03 07:17:36 | 50.66001 | 21.50615 | 112° | 44km/h | 14772m | 2.2m/s | 0°C | 0% | 0hPa | 0V | 00:00:00 | 00:00:00 | 00:00:00 | |
| SQ9PSP-11 | 2026-09-03 07:17:26 | 50.66035 | 21.50426 | 100° | 29km/h | 14733m | 3.8m/s | 0°C | 0% | 0hPa | 0V | 00:00:00 | 00:00:00 | 00:00:00 | |
| OM5KV | 2026-09-03 07:17:18 | 50.66066 | 21.50289 | 109° | 58km/h | 14704m | 2.8m/s | 0°C | 0% | 0hPa | 0V | 00:00:00 | 00:00:00 | 00:00:00 | |
| SQ9PSP-11 | 2026-09-03 07:16:53 | 50.66191 | 21.49887 | 96° | 42km/h | 14615m | 3.0m/s | 0°C | 0% | 0hPa | 0V | 00:00:00 | 00:00:00 | 00:00:00 | |
| OM5KV | 2026-09-03 07:16:44 | 50.66245 | 21.49746 | 111° | 49km/h | 14582m | 1.4m/s | 0°C | 0% | 0hPa | 0V | 00:00:00 | 00:00:00 | 00:00:00 | |
| SQ9PSP-11 | 2026-09-03 07:16:37 | 50.66293 | 21.49637 | 119° | 44km/h | 14555m | 3.2m/s | 0°C | 0% | 0hPa | 0V | 00:00:00 | 00:00:00 | 00:00:00 | |
| OM5KV | 2026-09-03 07:16:34 | 50.66315 | 21.49586 | 124° | 40km/h | 14543m | 4.6m/s | 0°C | 0% | 0hPa | 0V | 00:00:00 | 00:00:00 | 00:00:00 | |
| OM5KV | 2026-09-03 07:16:30 | 50.66345 | 21.49513 | 118° | 35km/h | 14530m | 0.3m/s | 0°C | 0% | 0hPa | 0V | 00:00:00 | 00:00:00 | 00:00:00 | |
| SQ9PSP-11 | 2026-09-03 07:16:22 | 50.66408 | 21.49360 | 110° | 68km/h | 14501m | 0.5m/s | 0°C | 0% | 0hPa | 0V | 00:00:00 | 00:00:00 | 00:00:00 | |
| SQ9PSP-11 | 2026-09-03 07:16:06 | 50.66513 | 21.49031 | 97° | 58km/h | 14446m | 3.0m/s | 0°C | 0% | 0hPa | 0V | 00:00:00 | 00:00:00 | 00:00:00 | |
| SQ9PSP-11 | 2026-09-03 07:15:48 | 50.66628 | 21.48650 | 120° | 58km/h | 14377m | 3.9m/s | 0°C | 0% | 0hPa | 0V | 00:00:00 | 00:00:00 | 00:00:00 | |
| SQ9PSP-11 | 2026-09-03 07:15:33 | 50.66722 | 21.48349 | 109° | 62km/h | 14325m | 1.4m/s | 0°C | 0% | 0hPa | 0V | 00:00:00 | 00:00:00 | 00:00:00 | |
| SQ9PSP-11 | 2026-09-03 07:15:17 | 50.66834 | 21.48036 | 113° | 60km/h | 14264m | 3.4m/s | 0°C | 0% | 0hPa | 0V | 00:00:00 | 00:00:00 | 00:00:00 | |
| OM5KV | 2026-09-03 07:15:16 | 50.66840 | 21.48018 | 128° | 46km/h | 14260m | 4.2m/s | 0°C | 0% | 0hPa | 0V | 00:00:00 | 00:00:00 | 00:00:00 | |
| OM5KV | 2026-09-03 07:15:05 | 50.66914 | 21.47800 | 122° | 64km/h | 14219m | 1.7m/s | 0°C | 0% | 0hPa | 0V | 00:00:00 | 00:00:00 | 00:00:00 | |
| SQ9PSP-11 | 2026-09-03 07:14:46 | 50.67027 | 21.47408 | 130° | 51km/h | 14149m | 0.6m/s | 0°C | 0% | 0hPa | 0V | 00:00:00 | 00:00:00 | 00:00:00 | |
| SQ9PSP-11 | 2026-09-03 07:14:30 | 50.67128 | 21.47090 | 115° | 40km/h | 14091m | 2.2m/s | 0°C | 0% | 0hPa | 0V | 00:00:00 | 00:00:00 | 00:00:00 | |
| OM5KV | 2026-09-03 07:14:20 | 50.67192 | 21.46908 | 128° | 64km/h | 14055m | 2.7m/s | 0°C | 0% | 0hPa | 0V | 00:00:00 | 00:00:00 | 00:00:00 | |
| SQ9PSP-11 | 2026-09-03 07:14:12 | 50.67240 | 21.46764 | 106° | 38km/h | 14023m | 2.8m/s | 0°C | 0% | 0hPa | 0V | 00:00:00 | 00:00:00 | 00:00:00 | |
| SQ9PSP-11 | 2026-09-03 07:13:57 | 50.67323 | 21.46515 | 133° | 53km/h | 13972m | -0.6m/s | 0°C | 0% | 0hPa | 0V | 00:00:00 | 00:00:00 | 00:00:00 | |
| OM5KV | 2026-09-03 07:13:52 | 50.67351 | 21.46433 | 103° | 42km/h | 13955m | 1.7m/s | 0°C | 0% | 0hPa | 0V | 00:00:00 | 00:00:00 | 00:00:00 | |
| SQ9PSP-11 | 2026-09-03 07:13:42 | 50.67407 | 21.46268 | 129° | 60km/h | 13919m | 4.0m/s | 0°C | 0% | 0hPa | 0V | 00:00:00 | 00:00:00 | 00:00:00 | |
| OM5KV | 2026-09-03 07:13:37 | 50.67431 | 21.46179 | 106° | 46km/h | 13899m | 2.1m/s | 0°C | 0% | 0hPa | 0V | 00:00:00 | 00:00:00 | 00:00:00 | |
| SQ9PSP-11 | 2026-09-03 07:13:27 | 50.67479 | 21.45998 | 111° | 64km/h | 13867m | 0.7m/s | 0°C | 0% | 0hPa | 0V | 00:00:00 | 00:00:00 | 00:00:00 | |
| SQ9PSP-11 | 2026-09-03 07:13:10 | 50.67559 | 21.45703 | 100° | 49km/h | 13805m | 2.1m/s | 0°C | 0% | 0hPa | 0V | 00:00:00 | 00:00:00 | 00:00:00 | |
| SQ9PSP-11 | 2026-09-03 07:12:55 | 50.67634 | 21.45455 | 116° | 42km/h | 13753m | 3.9m/s | 0°C | 0% | 0hPa | 0V | 00:00:00 | 00:00:00 | 00:00:00 | |
| SQ9PSP-11 | 2026-09-03 07:12:40 | 50.67723 | 21.45202 | 135° | 47km/h | 13702m | -0.1m/s | 0°C | 0% | 0hPa | 0V | 00:00:00 | 00:00:00 | 00:00:00 | |
| SQ9PSP-11 | 2026-09-03 07:12:23 | 50.67829 | 21.44901 | 115° | 53km/h | 13642m | 2.1m/s | 0°C | 0% | 0hPa | 0V | 00:00:00 | 00:00:00 | 00:00:00 | |
| OM5KV | 2026-09-03 07:12:17 | 50.67868 | 21.44797 | 118° | 66km/h | 13624m | 1.2m/s | 0°C | 0% | 0hPa | 0V | 00:00:00 | 00:00:00 | 00:00:00 | |
| SQ9PSP-11 | 2026-09-03 07:11:52 | 50.68048 | 21.44343 | 123° | 49km/h | 13535m | 2.5m/s | 0°C | 0% | 0hPa | 0V | 00:00:00 | 00:00:00 | 00:00:00 | |
| SQ9PSP-11 | 2026-09-03 07:11:33 | 50.68217 | 21.43974 | 142° | 55km/h | 13467m | 1.1m/s | 0°C | 0% | 0hPa | 0V | 00:00:00 | 00:00:00 | 00:00:00 | |
| SQ9PSP-11 | 2026-09-03 07:11:17 | 50.68369 | 21.43634 | 130° | 69km/h | 13412m | 4.8m/s | 0°C | 0% | 0hPa | 0V | 00:00:00 | 00:00:00 | 00:00:00 | |
| SQ9PSP-11 | 2026-09-03 07:11:01 | 50.68523 | 21.43270 | 133° | 69km/h | 13356m | -0.7m/s | 0°C | 0% | 0hPa | 0V | 00:00:00 | 00:00:00 | 00:00:00 | |
| SQ9PSP-11 | 2026-09-03 07:10:37 | 50.68751 | 21.42699 | 131° | 58km/h | 13271m | 0.4m/s | 0°C | 0% | 0hPa | 0V | 00:00:00 | 00:00:00 | 00:00:00 | |
| SQ9PSP-11 | 2026-09-03 07:10:22 | 50.68890 | 21.42372 | 122° | 60km/h | 13215m | 3.7m/s | 0°C | 0% | 0hPa | 0V | 00:00:00 | 00:00:00 | 00:00:00 | |
| SQ9PSP-11 | 2026-09-03 07:09:45 | 50.69201 | 21.41540 | 116° | 57km/h | 13088m | 1.4m/s | 0°C | 0% | 0hPa | 0V | 00:00:00 | 00:00:00 | 00:00:00 | |
| SQ9PSP-11 | 2026-09-03 07:09:30 | 50.69302 | 21.41192 | 103° | 57km/h | 13035m | 1.4m/s | 0°C | 0% | 0hPa | 0V | 00:00:00 | 00:00:00 | 00:00:00 | |
| SQ9PSP-11 | 2026-09-03 07:09:12 | 50.69418 | 21.40796 | 101° | 46km/h | 12970m | 2.5m/s | 0°C | 0% | 0hPa | 0V | 00:00:00 | 00:00:00 | 00:00:00 | |
| SQ9PSP-11 | 2026-09-03 07:07:42 | 50.70052 | 21.39038 | 112° | 55km/h | 12654m | 3.7m/s | 0°C | 0% | 0hPa | 0V | 00:00:00 | 00:00:00 | 00:00:00 | |
| SQ9PSP-11 | 2026-09-03 07:07:27 | 50.70183 | 21.38725 | 124° | 57km/h | 12601m | 2.8m/s | 0°C | 0% | 0hPa | 0V | 00:00:00 | 00:00:00 | 00:00:00 | |
| SQ9PSP-11 | 2026-09-03 07:07:09 | 50.70329 | 21.38358 | 131° | 69km/h | 12537m | 2.8m/s | 0°C | 0% | 0hPa | 0V | 00:00:00 | 00:00:00 | 00:00:00 | |
| SQ9PSP-11 | 2026-09-03 07:06:54 | 50.70455 | 21.38080 | 140° | 58km/h | 12485m | 1.8m/s | 0°C | 0% | 0hPa | 0V | 00:00:00 | 00:00:00 | 00:00:00 | |
| SQ9PSP-11 | 2026-09-03 07:06:37 | 50.70614 | 21.37760 | 139° | 66km/h | 12426m | 0.8m/s | 0°C | 0% | 0hPa | 0V | 00:00:00 | 00:00:00 | 00:00:00 | |
| SQ9PSP-11 | 2026-09-03 07:06:20 | 50.70764 | 21.37437 | 144° | 66km/h | 12364m | 1.0m/s | 0°C | 0% | 0hPa | 0V | 00:00:00 | 00:00:00 | 00:00:00 | |
| SQ9PSP-11 | 2026-09-03 07:06:05 | 50.70906 | 21.37133 | 134° | 73km/h | 12313m | 1.3m/s | 0°C | 0% | 0hPa | 0V | 00:00:00 | 00:00:00 | 00:00:00 | |
| SQ9PSP-11 | 2026-09-03 07:05:47 | 50.71084 | 21.36764 | 132° | 58km/h | 12250m | 1.3m/s | 0°C | 0% | 0hPa | 0V | 00:00:00 | 00:00:00 | 00:00:00 | |
| OM5KV | 2026-09-03 07:05:33 | 50.71233 | 21.36470 | 136° | 57km/h | 12204m | 0.5m/s | 0°C | 0% | 0hPa | 0V | 00:00:00 | 00:00:00 | 00:00:00 | |
| SQ9PSP-11 | 2026-09-03 07:05:31 | 50.71257 | 21.36427 | 131° | 69km/h | 12196m | 3.1m/s | 0°C | 0% | 0hPa | 0V | 00:00:00 | 00:00:00 | 00:00:00 | |
| SQ9PSP-11 | 2026-09-03 07:05:16 | 50.71427 | 21.36127 | 141° | 69km/h | 12144m | 5.9m/s | 0°C | 0% | 0hPa | 0V | 00:00:00 | 00:00:00 | 00:00:00 | |
| SQ9PSP-11 | 2026-09-03 07:05:00 | 50.71630 | 21.35785 | 136° | 82km/h | 12090m | 1.8m/s | 0°C | 0% | 0hPa | 0V | 00:00:00 | 00:00:00 | 00:00:00 | |
| OM5KV | 2026-09-03 07:04:45 | 50.71821 | 21.35438 | 131° | 68km/h | 12041m | 1.5m/s | 0°C | 0% | 0hPa | 0V | 00:00:00 | 00:00:00 | 00:00:00 | |
| SQ9PSP-11 | 2026-09-03 07:04:26 | 50.72069 | 21.34901 | 124° | 71km/h | 11969m | 0.4m/s | 0°C | 0% | 0hPa | 0V | 00:00:00 | 00:00:00 | 00:00:00 | |
| SQ9PSP-11 | 2026-09-03 07:04:09 | 50.72264 | 21.34448 | 126° | 69km/h | 11915m | 2.5m/s | 0°C | 0% | 0hPa | 0V | 00:00:00 | 00:00:00 | 00:00:00 | |
| SQ9PSP-11 | 2026-09-03 07:03:50 | 50.72484 | 21.33914 | 109° | 80km/h | 11849m | 0.5m/s | 0°C | 0% | 0hPa | 0V | 00:00:00 | 00:00:00 | 00:00:00 | |
| SQ9PSP-11 | 2026-09-03 07:03:23 | 50.72762 | 21.33166 | 119° | 73km/h | 11759m | 0.0m/s | 0°C | 0% | 0hPa | 0V | 00:00:00 | 00:00:00 | 00:00:00 | |
| SQ9PSP-11 | 2026-09-03 07:03:07 | 50.72944 | 21.32753 | 125° | 82km/h | 11706m | 3.4m/s | 0°C | 0% | 0hPa | 0V | 00:00:00 | 00:00:00 | 00:00:00 | |
| SQ9PSP-11 | 2026-09-03 07:02:51 | 50.73131 | 21.32368 | 134° | 73km/h | 11652m | 4.9m/s | 0°C | 0% | 0hPa | 0V | 00:00:00 | 00:00:00 | 00:00:00 | |
| SQ9PSP-11 | 2026-09-03 07:02:36 | 50.73314 | 21.32026 | 144° | 71km/h | 11598m | 1.6m/s | 0°C | 0% | 0hPa | 0V | 00:00:00 | 00:00:00 | 00:00:00 | |
| SQ9PSP-11 | 2026-09-03 07:02:19 | 50.73548 | 21.31647 | 128° | 78km/h | 11539m | 0.8m/s | 0°C | 0% | 0hPa | 0V | 00:00:00 | 00:00:00 | 00:00:00 | |
| SQ9PSP-11 | 2026-09-03 07:02:02 | 50.73790 | 21.31270 | 127° | 84km/h | 11478m | 1.0m/s | 0°C | 0% | 0hPa | 0V | 00:00:00 | 00:00:00 | 00:00:00 | |
| SQ9PSP-11 | 2026-09-03 07:01:45 | 50.74042 | 21.30863 | 142° | 73km/h | 11420m | 1.2m/s | 0°C | 0% | 0hPa | 0V | 00:00:00 | 00:00:00 | 00:00:00 | |
| SQ9PSP-11 | 2026-09-03 07:01:23 | 50.74335 | 21.30271 | 131° | 73km/h | 11343m | 3.1m/s | 0°C | 0% | 0hPa | 0V | 00:00:00 | 00:00:00 | 00:00:00 | |
| SQ9PSP-11 | 2026-09-03 07:01:08 | 50.74524 | 21.29863 | 132° | 77km/h | 11291m | 1.5m/s | 0°C | 0% | 0hPa | 0V | 00:00:00 | 00:00:00 | 00:00:00 | |
| SQ9PSP-11 | 2026-09-03 07:00:19 | 50.75127 | 21.28584 | 124° | 75km/h | 11124m | 0.8m/s | 0°C | 0% | 0hPa | 0V | 00:00:00 | 00:00:00 | 00:00:00 | |
| SQ9PSP-11 | 2026-09-03 06:57:25 | 50.77655 | 21.24364 | 134° | 89km/h | 10534m | 2.3m/s | 0°C | 0% | 0hPa | 0V | 00:00:00 | 00:00:00 | 00:00:00 | |
| SQ9PSP-11 | 2026-09-03 06:54:03 | 50.79928 | 21.19014 | 108° | 66km/h | 9835m | 0.9m/s | 0°C | 0% | 0hPa | 0V | 00:00:00 | 00:00:00 | 00:00:00 | |
| SQ9PSP-11 | 2026-09-03 06:49:39 | 50.81887 | 21.11955 | 117° | 58km/h | 8867m | 1.5m/s | 0°C | 0% | 0hPa | 0V | 00:00:00 | 00:00:00 | 00:00:00 | |
| SQ9PSP-11 | 2026-09-03 06:49:20 | 50.82036 | 21.11468 | 126° | 71km/h | 8800m | 1.1m/s | 0°C | 0% | 0hPa | 0V | 00:00:00 | 00:00:00 | 00:00:00 | |
| AKAW683 | 2026-09-03 06:22:00 | 50.89413 | 20.83982 | 87° | 44km/h | 3627m | 1.5m/s | 0°C | -1.0% | -1.0hPa | 0V | 00:00:00 | 00:00:00 | 00:00:00 | |
| AKAW683 | 2026-09-03 06:21:29 | 50.89401 | 20.83671 | 89° | 27km/h | 3565m | 2.1m/s | 0°C | -1.0% | -1.0hPa | 0V | 00:00:00 | 00:00:00 | 00:00:00 | |
| AKAW683 | 2026-09-03 06:20:58 | 50.89381 | 20.83241 | 93° | 42km/h | 3480m | 1.4m/s | 0°C | -1.0% | -1.0hPa | 0V | 00:00:00 | 00:00:00 | 00:00:00 | |
| AKAW683 | 2026-09-03 06:20:27 | 50.89366 | 20.82779 | 92° | 38km/h | 3395m | 2.6m/s | 0°C | -1.0% | -1.0hPa | 0V | 00:00:00 | 00:00:00 | 00:00:00 | |
| AKAW683 | 2026-09-03 06:19:25 | 50.89375 | 20.81839 | 102° | 35km/h | 3219m | 1.8m/s | 0°C | -1.0% | -1.0hPa | 0V | 00:00:00 | 00:00:00 | 00:00:00 | |
| AKAW683 | 2026-09-03 06:18:54 | 50.89390 | 20.81442 | 105° | 31km/h | 3146m | 1.9m/s | 0°C | -1.0% | -1.0hPa | 0V | 00:00:00 | 00:00:00 | 00:00:00 | |
| AKAW683 | 2026-09-03 06:18:23 | 50.89418 | 20.80948 | 94° | 29km/h | 3051m | 1.8m/s | 0°C | -1.0% | -1.0hPa | 0V | 00:00:00 | 00:00:00 | 00:00:00 |